Time;durP1;ratioP1;P1;durP2;ratioP2;P2;SDS_P1;SDS_P2;PMS_P1;PMS_P2;Temp;Humidity;BMP_temperature;BMP_pressure;BME280_temperature;BME280_humidity;BME280_pressure;Samples;Min_cycle;Max_cycle;Signal;HPM_P1;HPM_P2
2023/07/04 00:07:04;;;;;;;19.00;11.32;;;;;;;25.59;100.00;100793.28;21175524;27;20085;-82
2023/07/04 00:17:27;;;;;;;24.63;11.60;;;;;;;25.57;100.00;100790.63;21195102;27;20055;-82
2023/07/04 00:27:51;;;;;;;17.63;10.82;;;;;;;25.59;100.00;100793.28;21200910;27;20047;-83
2023/07/04 00:38:15;;;;;;;16.92;11.02;;;;;;;25.41;100.00;100781.41;21220438;27;20498;-82
2023/07/04 00:48:40;;;;;;;17.35;11.13;;;;;;;25.27;100.00;100784.72;21213195;27;20039;-83
2023/07/04 00:59:03;;;;;;;16.95;11.18;;;;;;;25.18;100.00;100787.88;21227396;27;20047;-82
2023/07/04 01:09:30;;;;;;;17.90;10.60;;;;;;;25.20;100.00;100771.59;21210429;27;20043;-81
2023/07/04 01:19:53;;;;;;;18.02;10.18;;;;;;;25.20;100.00;100780.59;21201324;27;20062;-81
2023/07/04 01:30:18;;;;;;;17.98;10.68;;;;;;;25.18;100.00;100776.19;21210806;27;20068;-81
2023/07/04 01:40:42;;;;;;;16.45;10.70;;;;;;;25.17;100.00;100767.19;21205934;27;20047;-81
2023/07/04 01:50:47;;;;;;;19.17;11.00;;;;;;;25.19;100.00;100775.22;21237324;28;20461;-82
2023/07/04 02:00:52;;;;;;;20.13;10.87;;;;;;;25.20;100.00;100775.19;21225321;28;20043;-81
2023/07/04 02:11:16;;;;;;;15.73;10.20;;;;;;;25.19;100.00;100767.13;21218272;27;20108;-81
2023/07/04 02:21:39;;;;;;;13.65;10.20;;;;;;;25.05;100.00;100770.44;21189738;27;20051;-81
2023/07/04 02:32:03;;;;;;;19.45;11.25;;;;;;;25.06;100.00;100777.59;21208717;27;20127;-81
2023/07/04 02:42:26;;;;;;;16.67;10.32;;;;;;;25.03;100.00;100777.72;21214644;27;20081;-81
2023/07/04 02:52:52;;;;;;;15.65;9.93;;;;;;;24.99;100.00;100787.81;21210450;27;20116;-83
2023/07/04 03:03:16;;;;;;;17.60;10.70;;;;;;;24.94;100.00;100786.25;21216578;27;20051;-81
2023/07/04 03:13:40;;;;;;;17.55;9.57;;;;;;;24.85;100.00;100789.31;21204071;27;20045;-80
2023/07/04 03:24:03;;;;;;;19.30;10.65;;;;;;;24.86;100.00;100791.94;21198514;27;20051;-82
2023/07/04 03:34:29;;;;;;;15.07;10.80;;;;;;;24.81;100.00;100803.88;21166746;27;20392;-81
2023/07/04 03:44:52;;;;;;;16.67;10.93;;;;;;;24.85;100.00;100805.50;21187786;27;20059;-82
2023/07/04 03:55:17;;;;;;;16.95;10.70;;;;;;;24.88;100.00;100808.94;21110445;27;20104;-80
2023/07/04 04:05:40;;;;;;;15.38;9.10;;;;;;;24.94;100.00;100811.41;21220951;27;20051;-81
2023/07/04 04:16:05;;;;;;;13.48;7.78;;;;;;;25.64;100.00;100818.28;21105872;27;20463;-81
2023/07/04 04:26:32;;;;;;;16.30;8.85;;;;;;;25.90;100.00;100820.66;21195507;27;20055;-82
2023/07/04 04:36:56;;;;;;;16.40;7.88;;;;;;;26.11;100.00;100819.63;21206050;27;20562;-83
2023/07/04 04:47:05;;;;;;;14.52;7.88;;;;;;;26.08;100.00;100825.19;21230106;27;20054;-82
2023/07/04 04:57:30;;;;;;;15.45;7.28;;;;;;;26.20;100.00;100824.59;21198935;27;20135;-81
2023/07/04 05:07:52;;;;;;;17.17;7.60;;;;;;;26.29;100.00;100819.72;21175611;27;20155;-80
2023/07/04 05:18:16;;;;;;;11.68;6.50;;;;;;;26.87;100.00;100815.88;21150976;27;20147;-79
2023/07/04 05:28:40;;;;;;;12.85;6.72;;;;;;;27.59;100.00;100812.16;21170148;27;20055;-81
2023/07/04 05:39:06;;;;;;;14.15;7.22;;;;;;;27.47;100.00;100819.09;21109941;28;20614;-82
2023/07/04 05:49:28;;;;;;;14.30;7.25;;;;;;;27.27;100.00;100820.16;21148516;28;20102;-81
2023/07/04 05:59:54;;;;;;;11.57;6.47;;;;;;;27.45;100.00;100812.88;21126164;28;20043;-82
2023/07/04 06:10:17;;;;;;;15.23;6.00;;;;;;;28.13;100.00;100817.25;21156838;27;20055;-82
2023/07/04 06:20:41;;;;;;;14.15;5.72;;;;;;;28.54;100.00;100819.50;21146716;27;20051;-81
2023/07/04 06:31:05;;;;;;;10.05;5.85;;;;;;;29.16;100.00;100814.91;21135283;27;20043;-82
2023/07/04 06:41:29;;;;;;;13.20;7.30;;;;;;;29.45;100.00;100824.03;21165614;27;20058;-82
2023/07/04 06:51:52;;;;;;;10.65;5.93;;;;;;;30.56;100.00;100823.25;21136355;27;20432;-83
2023/07/04 07:02:17;;;;;;;13.73;6.40;;;;;;;30.41;100.00;100822.38;21140157;27;20048;-83
2023/07/04 07:12:40;;;;;;;9.10;5.13;;;;;;;31.19;100.00;100818.03;21180405;27;20051;-83
2023/07/04 07:23:05;;;;;;;10.20;5.78;;;;;;;31.48;100.00;100820.59;21154320;27;20778;-83
2023/07/04 07:33:29;;;;;;;11.02;6.65;;;;;;;31.89;100.00;100820.41;21100706;27;20136;-83
2023/07/04 07:43:53;;;;;;;10.65;5.57;;;;;;;32.43;100.00;100820.94;21106922;27;20051;-83
2023/07/04 07:54:16;;;;;;;12.75;6.05;;;;;;;32.88;100.00;100824.00;21168994;27;20116;-83
2023/07/04 08:04:20;;;;;;;12.75;6.28;;;;;;;32.48;100.00;100820.63;21178620;27;20043;-83
2023/07/04 08:14:42;;;;;;;9.82;5.88;;;;;;;32.36;100.00;100833.34;21219276;27;20059;-83
2023/07/04 08:25:07;;;;;;;10.68;6.88;;;;;;;32.27;100.00;100823.97;21209840;27;20050;-83
2023/07/04 08:35:30;;;;;;;11.90;6.60;;;;;;;32.85;100.00;100825.06;21216786;27;20138;-83
2023/07/04 08:45:55;;;;;;;11.82;6.03;;;;;;;33.43;100.00;100823.31;21211574;27;20054;-83
2023/07/04 08:56:31;;;;;;;13.73;6.47;;;;;;;33.51;96.17;100821.72;21187195;27;20059;-83
2023/07/04 09:07:04;;;;;;;9.80;6.40;;;;;;;34.15;87.52;100827.53;21207732;27;20070;-81
2023/07/04 09:17:31;;;;;;;10.05;5.93;;;;;;;34.23;80.95;100827.81;21152513;27;20078;-83
2023/07/04 09:27:56;;;;;;;13.73;7.22;;;;;;;34.56;68.93;100820.53;21070588;28;20062;-82
2023/07/04 09:38:18;;;;;;;10.75;6.00;;;;;;;34.72;63.67;100821.84;21090518;28;20048;-82
2023/07/04 09:48:42;;;;;;;10.32;6.28;;;;;;;34.88;58.25;100817.81;21100999;28;21615;-82
2023/07/04 09:59:17;;;;;;;12.53;6.80;;;;;;;34.95;57.14;100832.78;21100126;28;20097;-78
2023/07/04 10:09:50;;;;;;;8.87;5.50;;;;;;;35.29;55.69;100812.44;21109619;28;20125;-80
2023/07/04 10:20:15;;;;;;;11.73;5.68;;;;;;;35.01;53.27;100802.91;21175543;27;20559;-85
2023/07/04 10:30:40;;;;;;;12.10;6.50;;;;;;;34.92;51.47;100798.22;21165071;27;20047;-84
2023/07/04 10:41:16;;;;;;;15.45;7.20;;;;;;;35.12;50.02;100793.75;21179364;28;20055;-84
2023/07/04 10:51:42;;;;;;;;;;;;;;;35.01;51.22;100777.34;21160624;27;20045;-84
2023/07/04 11:02:14;;;;;;;12.45;6.15;;;;;;;35.60;52.68;100774.88;21198709;27;20290;-83
2023/07/04 11:12:21;;;;;;;8.40;5.97;;;;;;;36.30;48.45;100785.91;21207980;27;20055;-83
2023/07/04 11:22:56;;;;;;;8.57;5.97;;;;;;;36.41;44.98;100795.94;21193860;27;20061;-82
2023/07/04 11:33:38;;;;;;;9.45;6.20;;;;;;;35.97;45.85;100785.38;21167705;27;20088;-82
2023/07/04 11:44:12;;;;;;;10.77;5.85;;;;;;;35.97;45.03;100779.88;21181722;27;20398;-82
2023/07/04 11:54:26;;;;;;;10.15;6.75;;;;;;;35.49;45.39;100784.09;21186869;27;20126;-81
2023/07/04 12:04:50;;;;;;;12.00;6.90;;;;;;;35.17;46.94;100775.91;21198751;27;20049;-82
2023/07/04 12:15:01;;;;;;;10.50;6.27;;;;;;;34.97;48.68;100770.38;21190164;27;20043;-81
2023/07/04 12:25:26;;;;;;;10.80;6.05;;;;;;;34.85;48.28;100774.19;21195436;27;20058;-82
2023/07/04 12:35:55;;;;;;;10.13;6.80;;;;;;;35.33;46.63;100780.06;21198572;27;20312;-83
2023/07/04 12:46:22;;;;;;;13.10;7.05;;;;;;;35.27;44.65;100773.22;21212361;27;20421;-81
2023/07/04 12:56:47;;;;;;;8.48;6.00;;;;;;;35.77;45.10;100765.19;21210759;27;20047;-81
2023/07/04 13:06:52;;;;;;;12.00;6.28;;;;;;;35.78;44.75;100773.25;21197585;27;20051;-80
2023/07/04 13:17:20;;;;;;;9.95;6.30;;;;;;;35.82;43.39;100766.50;21205101;27;20058;-78
2023/07/04 13:27:43;;;;;;;10.48;6.43;;;;;;;35.79;42.48;100760.38;21194610;27;20051;-80
2023/07/04 13:38:09;;;;;;;9.65;6.07;;;;;;;35.43;43.49;100746.16;21204460;27;20058;-82
2023/07/04 13:48:32;;;;;;;10.20;6.72;;;;;;;35.38;43.43;100739.34;21205620;27;20487;-80
2023/07/04 13:58:58;;;;;;;9.88;6.53;;;;;;;35.33;43.73;100734.25;21204981;28;20058;-80
2023/07/04 14:09:21;;;;;;;10.43;6.38;;;;;;;35.02;45.51;100724.19;21187101;27;20035;-81
2023/07/04 14:19:45;;;;;;;11.95;6.38;;;;;;;35.03;45.86;100720.44;21176533;27;20043;-83
2023/07/04 14:30:09;;;;;;;10.27;6.60;;;;;;;35.09;45.81;100704.31;21193524;27;20051;-83
2023/07/04 14:40:36;;;;;;;10.82;6.05;;;;;;;35.21;46.24;100707.00;21210502;27;20570;-84
2023/07/04 14:51:04;;;;;;;11.13;6.20;;;;;;;34.59;50.14;100696.84;21205368;27;20677;-83
2023/07/04 15:01:28;;;;;;;10.15;6.65;;;;;;;34.16;51.93;100689.47;21190294;27;20047;-83
2023/07/04 15:11:32;;;;;;;9.67;6.07;;;;;;;34.06;51.73;100682.16;21216018;27;20043;-82
2023/07/04 15:21:56;;;;;;;10.25;6.57;;;;;;;33.67;52.30;100680.81;21190233;27;20046;-83
2023/07/04 15:32:19;;;;;;;9.57;6.57;;;;;;;33.11;52.79;100667.09;21199891;27;20043;-81
2023/07/04 15:42:51;;;;;;;10.88;6.53;;;;;;;32.52;54.17;100675.34;21200758;27;20054;-82
2023/07/04 15:53:14;;;;;;;11.63;7.47;;;;;;;31.79;57.12;100683.63;21195610;27;20047;-81
2023/07/04 16:03:38;;;;;;;13.48;8.38;;;;;;;31.29;64.33;100679.09;21191939;27;20371;-81
2023/07/04 16:13:41;;;;;;;12.25;7.07;;;;;;;30.91;67.30;100680.94;21217606;27;21555;-82
2023/07/04 16:24:07;;;;;;;12.63;7.20;;;;;;;30.59;72.39;100681.28;21205019;27;20062;-82
2023/07/04 16:34:29;;;;;;;14.88;8.30;;;;;;;30.50;70.56;100690.13;21176025;27;20040;-81
2023/07/04 16:44:53;;;;;;;12.43;7.88;;;;;;;30.24;73.31;100691.84;21198658;27;20044;-82
2023/07/04 16:55:17;;;;;;;11.63;7.63;;;;;;;30.03;74.84;100696.00;21199113;27;20050;-79
2023/07/04 17:05:42;;;;;;;10.82;8.18;;;;;;;29.95;74.10;100698.34;21209476;27;20039;-80
2023/07/04 17:16:06;;;;;;;11.38;8.15;;;;;;;29.60;79.76;100692.47;21197290;27;20083;-80
2023/07/04 17:26:30;;;;;;;12.35;7.90;;;;;;;29.31;87.29;100689.72;21215721;27;20053;-80
2023/07/04 17:36:55;;;;;;;12.50;7.20;;;;;;;28.95;92.99;100686.56;21189578;27;20070;-79
2023/07/04 17:47:19;;;;;;;18.23;8.70;;;;;;;28.78;96.57;100678.59;21200806;27;20055;-80
2023/07/04 17:57:42;;;;;;;13.65;8.68;;;;;;;28.63;96.43;100669.50;21191862;27;20134;-80
2023/07/04 18:08:06;;;;;;;18.80;11.68;;;;;;;28.38;100.00;100663.78;21216763;27;20043;-80
2023/07/04 18:18:31;;;;;;;12.18;8.48;;;;;;;28.23;100.00;100662.84;21211330;27;20096;-81
2023/07/04 18:28:55;;;;;;;13.10;8.65;;;;;;;28.11;100.00;100671.69;21206333;27;20051;-82
2023/07/04 18:39:10;;;;;;;11.57;9.40;;;;;;;27.93;100.00;100689.06;21220593;27;20043;-81
2023/07/04 18:49:34;;;;;;;14.85;9.05;;;;;;;27.80;100.00;100683.44;21218338;27;20076;-82
2023/07/04 18:59:36;;;;;;;13.27;9.52;;;;;;;27.66;100.00;100683.34;21236184;27;20097;-82
2023/07/04 19:10:01;;;;;;;13.75;10.68;;;;;;;27.56;100.00;100687.56;21228312;27;20731;-81
2023/07/04 19:20:23;;;;;;;12.40;8.70;;;;;;;27.35;100.00;100687.75;21204372;27;20055;-81
2023/07/04 19:30:58;;;;;;;11.80;9.18;;;;;;;27.13;100.00;100694.41;21199394;27;20047;-80
2023/07/04 19:41:21;;;;;;;11.45;8.88;;;;;;;26.97;100.00;100705.22;21243544;27;20042;-83
2023/07/04 19:51:45;;;;;;;12.80;9.68;;;;;;;26.79;100.00;100717.84;21202750;27;20597;-80
2023/07/04 20:02:08;;;;;;;13.52;9.20;;;;;;;26.69;100.00;100722.00;21168917;27;20038;-80
2023/07/04 20:12:32;;;;;;;15.00;10.50;;;;;;;26.56;100.00;100715.47;21225915;27;20035;-80
2023/07/04 20:22:55;;;;;;;33.28;23.52;;;;;;;26.34;100.00;100717.50;21218010;27;20407;-80
2023/07/04 20:33:19;;;;;;;14.00;10.93;;;;;;;26.27;100.00;100713.34;21213678;27;20038;-80
2023/07/04 20:43:42;;;;;;;16.33;11.00;;;;;;;26.04;100.00;100714.47;21191277;27;20055;-80
2023/07/04 20:54:07;;;;;;;16.95;10.77;;;;;;;25.81;100.00;100723.69;21210918;27;20081;-78
2023/07/04 21:04:31;;;;;;;16.02;10.85;;;;;;;25.76;100.00;100720.31;21204351;27;20054;-80
2023/07/04 21:14:55;;;;;;;15.82;11.45;;;;;;;25.67;100.00;100720.75;21187362;27;20071;-80
2023/07/04 21:25:19;;;;;;;15.85;11.38;;;;;;;25.47;100.00;100715.41;21196849;27;20394;-81
2023/07/04 21:35:43;;;;;;;18.67;11.63;;;;;;;25.40;100.00;100714.81;21198982;27;20378;-80
2023/07/04 21:46:08;;;;;;;14.52;12.07;;;;;;;25.29;100.00;100709.88;21214838;27;20462;-80
2023/07/04 21:56:34;;;;;;;15.50;12.43;;;;;;;25.15;100.00;100700.63;21186294;27;20043;-80
2023/07/04 22:06:56;;;;;;;16.17;10.70;;;;;;;25.06;100.00;100701.94;21211969;27;20082;-80
2023/07/04 22:17:20;;;;;;;16.70;11.93;;;;;;;24.88;100.00;100700.00;21204296;27;20042;-81
2023/07/04 22:27:44;;;;;;;15.90;12.05;;;;;;;24.84;100.00;100690.31;21207953;27;20053;-81
2023/07/04 22:38:09;;;;;;;15.68;11.55;;;;;;;24.71;100.00;100672.88;21210512;27;20055;-80
2023/07/04 22:48:32;;;;;;;16.00;11.65;;;;;;;24.60;100.00;100682.34;21214869;27;20138;-80
2023/07/04 22:58:57;;;;;;;15.18;11.88;;;;;;;24.56;100.00;100669.03;21198917;27;20043;-80
2023/07/04 23:09:19;;;;;;;16.45;11.88;;;;;;;24.45;100.00;100664.09;21225442;27;20062;-80
2023/07/04 23:19:44;;;;;;;16.00;13.00;;;;;;;24.26;100.00;100655.06;21213745;27;20448;-80
2023/07/04 23:30:07;;;;;;;15.20;12.65;;;;;;;24.21;100.00;100651.69;21194012;27;20058;-80
2023/07/04 23:40:32;;;;;;;17.70;12.63;;;;;;;24.07;100.00;100644.13;21214357;27;20058;-80
2023/07/04 23:50:55;;;;;;;15.25;12.05;;;;;;;23.98;100.00;100647.19;21199707;27;20092;-80
